createdAt,value
2019-04-01T00:00:07.920Z,2.61
2019-04-01T00:01:07.907Z,2.57
2019-04-01T00:02:07.896Z,2.65
2019-04-01T00:03:07.876Z,2.59
2019-04-01T00:04:07.829Z,2.59
2019-04-01T00:05:07.865Z,2.54
2019-04-01T00:06:07.878Z,2.44
2019-04-01T00:07:07.830Z,2.37
2019-04-01T00:08:07.840Z,2.40
2019-04-01T00:09:07.809Z,2.34
2019-04-01T00:10:07.847Z,2.36
2019-04-01T00:11:07.762Z,2.36
2019-04-01T00:12:07.828Z,2.22
2019-04-01T00:13:07.818Z,2.30
2019-04-01T00:14:07.765Z,2.22
2019-04-01T00:15:07.713Z,2.25
2019-04-01T00:16:07.715Z,2.25
2019-04-01T00:17:08.535Z,2.26
2019-04-01T00:18:07.721Z,2.25
2019-04-01T00:19:07.926Z,2.26
2019-04-01T00:20:07.726Z,2.21
2019-04-01T00:21:07.721Z,2.15
2019-04-01T00:22:07.644Z,2.15
2019-04-01T00:23:07.772Z,2.04
2019-04-01T00:24:07.641Z,2.12
2019-04-01T00:25:07.630Z,2.00
2019-04-01T00:26:07.630Z,1.92
2019-04-01T00:27:07.587Z,1.84
2019-04-01T00:28:07.599Z,1.89
2019-04-01T00:29:07.621Z,1.86
2019-04-01T00:30:07.631Z,1.82
2019-04-01T00:31:07.576Z,1.81
2019-04-01T00:32:07.590Z,1.79
2019-04-01T00:33:07.539Z,1.85
2019-04-01T00:34:07.520Z,1.86
2019-04-01T00:35:07.553Z,1.88
2019-04-01T00:36:07.512Z,1.75
2019-04-01T00:37:07.492Z,1.71
2019-04-01T00:38:07.543Z,1.76
2019-04-01T00:39:07.470Z,1.74
2019-04-01T00:40:07.456Z,1.74
2019-04-01T00:41:07.501Z,1.71
2019-04-01T00:42:07.454Z,1.76
2019-04-01T00:43:07.484Z,1.78
2019-04-01T00:44:07.418Z,1.78
2019-04-01T00:45:07.549Z,1.79
2019-04-01T00:46:07.565Z,1.61
2019-04-01T00:47:07.427Z,1.79
2019-04-01T00:48:07.374Z,1.74
2019-04-01T00:49:07.356Z,1.67
2019-04-01T00:50:07.364Z,1.67
2019-04-01T00:51:07.410Z,1.61
2019-04-01T00:52:07.374Z,1.64
2019-04-01T00:53:07.333Z,1.61
2019-04-01T00:54:07.333Z,1.53
2019-04-01T00:55:07.356Z,1.56
2019-04-01T00:56:07.309Z,1.46
2019-04-01T00:57:07.330Z,1.46
2019-04-01T00:58:07.298Z,1.48
2019-04-01T00:59:07.271Z,1.48
2019-04-01T01:00:07.265Z,1.48
2019-04-01T01:01:07.338Z,1.48
2019-04-01T01:02:07.341Z,1.49
2019-04-01T01:03:07.270Z,1.42
2019-04-01T01:04:07.249Z,1.39
2019-04-01T01:05:07.227Z,1.36
2019-04-01T01:06:07.265Z,1.30
2019-04-01T01:07:07.350Z,1.25
2019-04-01T01:08:07.174Z,1.30
2019-04-01T01:09:07.213Z,1.24
2019-04-01T01:10:07.156Z,1.25
2019-04-01T01:11:07.185Z,1.21
2019-04-01T01:12:07.158Z,1.21
2019-04-01T01:13:07.152Z,1.22
2019-04-01T01:14:07.136Z,1.18
2019-04-01T01:15:07.123Z,1.12
2019-04-01T01:16:07.116Z,1.13
2019-04-01T01:17:07.073Z,1.14
2019-04-01T01:18:07.218Z,1.07
2019-04-01T01:19:07.090Z,1.10
2019-04-01T01:20:08.558Z,1.12
2019-04-01T01:21:07.046Z,1.12
2019-04-01T01:22:07.049Z,1.13
2019-04-01T01:23:07.023Z,1.07
2019-04-01T01:24:07.169Z,1.16
2019-04-01T01:25:07.044Z,1.04
2019-04-01T01:26:07.111Z,1.02
2019-04-01T01:27:06.988Z,1.06
2019-04-01T01:28:06.974Z,1.00
2019-04-01T01:29:07.124Z,1.03
2019-04-01T01:30:06.985Z,1.02
2019-04-01T01:31:07.097Z,0.99
2019-04-01T01:32:07.106Z,0.95
2019-04-01T01:33:06.966Z,1.02
2019-04-01T01:34:07.016Z,1.02
2019-04-01T01:35:06.917Z,1.06
2019-04-01T01:36:06.926Z,1.00
2019-04-01T01:37:06.913Z,1.03
2019-04-01T01:38:06.914Z,0.96
2019-04-01T01:39:06.942Z,0.96
2019-04-01T01:40:06.881Z,0.91
2019-04-01T01:41:07.546Z,0.99
2019-04-01T01:42:06.826Z,0.96
2019-04-01T01:43:06.824Z,0.95
2019-04-01T01:44:06.861Z,0.96
2019-04-01T01:45:06.780Z,0.92
2019-04-01T01:46:06.875Z,0.95
2019-04-01T01:47:06.828Z,0.95
2019-04-01T01:48:06.895Z,0.91
2019-04-01T01:49:06.778Z,0.86
2019-04-01T01:50:06.825Z,0.85
2019-04-01T01:51:06.761Z,0.92
2019-04-01T01:52:06.746Z,0.96
2019-04-01T01:53:06.817Z,1.00
2019-04-01T01:54:07.550Z,0.94
2019-04-01T01:55:06.803Z,0.89
2019-04-01T01:56:06.821Z,0.78
2019-04-01T01:57:07.865Z,0.85
2019-04-01T01:58:06.861Z,0.71
2019-04-01T01:59:06.741Z,0.76
2019-04-01T02:00:06.866Z,0.74
2019-04-01T02:01:06.713Z,0.77
2019-04-01T02:02:06.825Z,0.74
2019-04-01T02:03:06.819Z,0.67
2019-04-01T02:04:06.718Z,0.66
2019-04-01T02:05:06.672Z,0.64
2019-04-01T02:06:06.698Z,0.64
2019-04-01T02:07:06.747Z,0.64
2019-04-01T02:08:06.568Z,0.61
2019-04-01T02:09:07.059Z,0.59
2019-04-01T02:10:06.606Z,0.48
2019-04-01T02:11:06.757Z,0.58
2019-04-01T02:12:06.583Z,0.45
2019-04-01T02:13:06.525Z,0.48
2019-04-01T02:14:06.496Z,0.45
2019-04-01T02:15:06.552Z,0.37
2019-04-01T02:16:06.484Z,0.39
2019-04-01T02:17:06.478Z,0.39
2019-04-01T02:18:06.444Z,0.42
2019-04-01T02:19:06.436Z,0.33
2019-04-01T02:20:08.928Z,0.40
2019-04-01T02:21:06.427Z,0.34
2019-04-01T02:22:06.433Z,0.34
2019-04-01T02:23:06.408Z,0.37
2019-04-01T02:24:06.421Z,0.33
2019-04-01T02:25:06.407Z,0.36
2019-04-01T02:26:06.364Z,0.33
2019-04-01T02:27:06.402Z,0.31
2019-04-01T02:28:06.366Z,0.31
2019-04-01T02:29:06.345Z,0.30
2019-04-01T02:30:06.395Z,0.30
2019-04-01T02:31:06.356Z,0.33
2019-04-01T02:32:06.301Z,0.29
2019-04-01T02:33:06.327Z,0.29
2019-04-01T02:34:06.274Z,0.37
2019-04-01T02:35:06.295Z,0.24
2019-04-01T02:36:06.276Z,0.29
2019-04-01T02:37:06.258Z,0.24
2019-04-01T02:38:06.310Z,0.18
2019-04-01T02:39:06.300Z,0.26
2019-04-01T02:40:06.275Z,0.33
2019-04-01T02:41:06.281Z,0.30
2019-04-01T02:42:06.245Z,0.26
2019-04-01T02:43:06.218Z,0.27
2019-04-01T02:44:06.213Z,0.29
2019-04-01T02:45:06.255Z,0.18
2019-04-01T02:46:06.209Z,0.30
2019-04-01T02:47:06.195Z,0.30
2019-04-01T02:48:06.176Z,0.23
2019-04-01T02:49:06.185Z,0.33
2019-04-01T02:50:06.109Z,0.33
2019-04-01T02:51:06.135Z,0.30
2019-04-01T02:52:06.093Z,0.30
2019-04-01T02:53:06.093Z,0.29
2019-04-01T02:54:06.075Z,0.30
2019-04-01T02:55:06.822Z,0.33
2019-04-01T02:56:06.073Z,0.33
2019-04-01T02:57:06.175Z,0.23
2019-04-01T02:58:06.050Z,0.30
2019-04-01T02:59:06.047Z,0.33
2019-04-01T03:00:06.117Z,0.31
2019-04-01T03:01:06.042Z,0.23
2019-04-01T03:02:05.996Z,0.23
2019-04-01T03:03:05.998Z,0.24
2019-04-01T03:04:05.986Z,0.26
2019-04-01T03:05:06.042Z,0.23
2019-04-01T03:06:05.992Z,0.26
2019-04-01T03:07:05.954Z,0.29
2019-04-01T03:08:05.959Z,0.26
2019-04-01T03:09:05.926Z,0.24
2019-04-01T03:10:05.907Z,0.23
2019-04-01T03:11:09.979Z,0.11
2019-04-01T03:12:06.958Z,0.23
2019-04-01T03:13:05.897Z,0.16
2019-04-01T03:14:05.901Z,0.23
2019-04-01T03:15:05.906Z,0.16
2019-04-01T03:16:05.885Z,0.11
2019-04-01T03:17:05.896Z,0.11
2019-04-01T03:18:05.830Z,0.15
2019-04-01T03:19:05.877Z,0.08
2019-04-01T03:20:05.826Z,0.01
2019-04-01T03:21:05.832Z,0.08
2019-04-01T03:22:05.835Z,0.05
2019-04-01T03:23:05.907Z,-0.02
2019-04-01T03:24:05.797Z,0.13
2019-04-01T03:25:05.795Z,-0.05
2019-04-01T03:26:05.821Z,0.02
2019-04-01T03:27:05.771Z,0.08
2019-04-01T03:28:05.739Z,0.11
2019-04-01T03:29:05.787Z,0.12
2019-04-01T03:30:05.776Z,0.15
2019-04-01T03:31:05.834Z,0.11
2019-04-01T03:32:05.691Z,0.08
2019-04-01T03:33:05.692Z,0.06
2019-04-01T03:34:05.664Z,0.01
2019-04-01T03:35:05.681Z,0.01
2019-04-01T03:36:05.702Z,-0.03
2019-04-01T03:37:05.684Z,-0.06
2019-04-01T03:38:05.682Z,0.05
2019-04-01T03:39:05.646Z,0.00
2019-04-01T03:40:05.620Z,0.09
2019-04-01T03:41:05.592Z,0.06
2019-04-01T03:42:05.614Z,0.09
2019-04-01T03:43:05.658Z,0.00
2019-04-01T03:44:05.590Z,0.08
2019-04-01T03:45:05.630Z,0.08
2019-04-01T03:46:05.541Z,0.02
2019-04-01T03:47:05.548Z,-0.03
2019-04-01T03:48:05.533Z,-0.02
2019-04-01T03:49:05.558Z,-0.09
2019-04-01T03:50:05.517Z,-0.06
2019-04-01T03:51:05.510Z,-0.12
2019-04-01T03:52:10.046Z,-0.17
2019-04-01T03:53:05.540Z,-0.21
2019-04-01T03:54:05.458Z,-0.20
2019-04-01T03:55:05.469Z,-0.20
2019-04-01T03:56:05.448Z,-0.24
2019-04-01T03:57:05.448Z,-0.28
2019-04-01T03:58:05.466Z,-0.28
2019-04-01T03:59:05.397Z,-0.28
2019-04-01T04:00:05.472Z,-0.36
2019-04-01T04:01:05.402Z,-0.41
2019-04-01T04:02:05.458Z,-0.28
2019-04-01T04:03:05.405Z,-0.27
2019-04-01T04:04:05.400Z,-0.27
2019-04-01T04:05:05.400Z,-0.35
2019-04-01T04:06:05.370Z,-0.39
2019-04-01T04:07:05.383Z,-0.30
2019-04-01T04:08:05.324Z,-0.41
2019-04-01T04:09:05.362Z,-0.38
2019-04-01T04:10:05.304Z,-0.41
2019-04-01T04:11:05.302Z,-0.39
2019-04-01T04:12:05.284Z,-0.41
2019-04-01T04:13:05.294Z,-0.39
2019-04-01T04:14:05.377Z,-0.35
2019-04-01T04:15:05.289Z,-0.48
2019-04-01T04:16:05.265Z,-0.48
2019-04-01T04:17:05.404Z,-0.46
2019-04-01T04:18:05.282Z,-0.51
2019-04-01T04:19:05.210Z,-0.62
2019-04-01T04:20:05.230Z,-0.62
2019-04-01T04:21:05.193Z,-0.54
2019-04-01T04:22:05.180Z,-0.63
2019-04-01T04:23:05.179Z,-0.63
2019-04-01T04:24:05.151Z,-0.60
2019-04-01T04:25:05.166Z,-0.54
2019-04-01T04:26:05.151Z,-0.63
2019-04-01T04:27:05.162Z,-0.63
2019-04-01T04:28:05.146Z,-0.57
2019-04-01T04:29:05.149Z,-0.62
2019-04-01T04:30:05.106Z,-0.63
2019-04-01T04:31:05.099Z,-0.59
2019-04-01T04:32:05.082Z,-0.57
2019-04-01T04:33:05.150Z,-0.62
2019-04-01T04:34:05.085Z,-0.64
2019-04-01T04:35:05.098Z,-0.51
2019-04-01T04:36:05.053Z,-0.60
2019-04-01T04:37:05.037Z,-0.46
2019-04-01T04:38:05.035Z,-0.64
2019-04-01T04:39:05.056Z,-0.60
2019-04-01T04:40:05.034Z,-0.64
2019-04-01T04:41:05.007Z,-0.54
2019-04-01T04:42:05.035Z,-0.63
2019-04-01T04:43:05.060Z,-0.48
2019-04-01T04:44:04.945Z,-0.63
2019-04-01T04:45:04.967Z,-0.60
2019-04-01T04:46:05.006Z,-0.63
2019-04-01T04:47:04.920Z,-0.59
2019-04-01T04:48:04.926Z,-0.62
2019-04-01T04:49:04.899Z,-0.60
2019-04-01T04:50:04.923Z,-0.60
2019-04-01T04:51:04.894Z,-0.54
2019-04-01T04:52:04.884Z,-0.51
2019-04-01T04:53:04.853Z,-0.54
2019-04-01T04:54:04.849Z,-0.64
2019-04-01T04:55:04.844Z,-0.57
2019-04-01T04:56:04.847Z,-0.62
2019-04-01T04:57:04.822Z,-0.60
2019-04-01T04:58:04.793Z,-0.62
2019-04-01T04:59:04.835Z,-0.63
2019-04-01T05:00:04.851Z,-0.66
2019-04-01T05:01:04.879Z,-0.62
2019-04-01T05:02:04.774Z,-0.64
2019-04-01T05:03:04.819Z,-0.60
2019-04-01T05:04:04.737Z,-0.45
2019-04-01T05:05:04.777Z,-0.48
2019-04-01T05:06:13.656Z,-0.53
2019-04-01T05:07:04.721Z,-0.39
2019-04-01T05:08:04.718Z,-0.41
2019-04-01T05:09:04.678Z,-0.35
2019-04-01T05:10:04.685Z,-0.39
2019-04-01T05:11:04.654Z,-0.44
2019-04-01T05:12:04.664Z,-0.46
2019-04-01T05:13:04.626Z,-0.41
2019-04-01T05:14:04.652Z,-0.42
2019-04-01T05:15:04.631Z,-0.33
2019-04-01T05:16:04.622Z,-0.35
2019-04-01T05:17:04.609Z,-0.28
2019-04-01T05:18:04.591Z,-0.30
2019-04-01T05:19:04.603Z,-0.17
2019-04-01T05:20:04.571Z,-0.12
2019-04-01T05:21:04.566Z,-0.07
2019-04-01T05:22:04.557Z,-0.13
2019-04-01T05:23:04.573Z,0.00
2019-04-01T05:24:04.569Z,0.01
2019-04-01T05:25:04.523Z,0.08
2019-04-01T05:26:04.537Z,0.05
2019-04-01T05:27:04.498Z,0.05
2019-04-01T05:28:04.501Z,0.18
2019-04-01T05:29:04.497Z,0.12
2019-04-01T05:30:04.518Z,0.16
2019-04-01T05:31:04.454Z,0.24
2019-04-01T05:32:04.471Z,0.27
2019-04-01T05:33:04.443Z,0.31
2019-04-01T05:34:04.439Z,0.27
2019-04-01T05:35:04.420Z,0.29
2019-04-01T05:36:04.436Z,0.39
2019-04-01T05:37:04.400Z,0.49
2019-04-01T05:38:04.411Z,0.49
2019-04-01T05:39:04.385Z,0.61
2019-04-01T05:40:04.377Z,0.59
2019-04-01T05:41:04.351Z,0.61
2019-04-01T05:42:04.339Z,0.73
2019-04-01T05:43:04.341Z,0.76
2019-04-01T05:44:04.333Z,0.82
2019-04-01T05:45:04.323Z,0.86
2019-04-01T05:46:04.334Z,0.86
2019-04-01T05:47:04.316Z,0.94
2019-04-01T05:48:04.286Z,0.96
2019-04-01T05:49:04.296Z,1.03
2019-04-01T05:50:04.306Z,1.03
2019-04-01T05:51:04.256Z,1.07
2019-04-01T05:52:04.240Z,1.14
2019-04-01T05:53:04.235Z,1.25
2019-04-01T05:54:04.223Z,1.30
2019-04-01T05:55:04.221Z,1.36
2019-04-01T05:56:04.228Z,1.40
2019-04-01T05:57:04.220Z,1.42
2019-04-01T05:58:04.223Z,1.57
2019-04-01T05:59:04.169Z,1.61
2019-04-01T06:00:04.167Z,1.63
2019-04-01T06:01:04.172Z,1.66
2019-04-01T06:02:04.166Z,1.75
2019-04-01T06:03:04.156Z,1.84
2019-04-01T06:04:04.164Z,1.82
2019-04-01T06:05:04.116Z,1.86
2019-04-01T06:06:04.107Z,2.08
2019-04-01T06:07:04.154Z,2.05
2019-04-01T06:08:04.080Z,2.14
2019-04-01T06:09:04.072Z,2.16
2019-04-01T06:10:04.063Z,2.25
2019-04-01T06:11:04.040Z,2.22
2019-04-01T06:12:04.038Z,2.32
2019-04-01T06:13:04.030Z,2.39
2019-04-01T06:14:13.227Z,2.44
2019-04-01T06:15:13.233Z,2.52
2019-04-01T06:16:03.991Z,2.62
2019-04-01T06:17:03.987Z,2.59
2019-04-01T06:18:03.999Z,2.69
2019-04-01T06:19:05.940Z,2.69
2019-04-01T06:20:03.952Z,2.69
2019-04-01T06:21:03.947Z,2.82
2019-04-01T06:22:03.916Z,2.87
2019-04-01T06:23:03.915Z,2.90
2019-04-01T06:24:03.955Z,3.03
2019-04-01T06:25:03.909Z,3.03
2019-04-01T06:26:03.958Z,3.06
2019-04-01T06:27:03.889Z,3.08
2019-04-01T06:28:03.866Z,3.19
2019-04-01T06:29:03.852Z,3.34
2019-04-01T06:30:03.859Z,3.29
2019-04-01T06:31:03.823Z,3.45
2019-04-01T06:32:03.824Z,3.52
2019-04-01T06:33:03.823Z,3.63
2019-04-01T06:34:03.790Z,3.70
2019-04-01T06:35:03.783Z,3.71
2019-04-01T06:36:03.792Z,3.78
2019-04-01T06:37:03.758Z,3.92
2019-04-01T06:38:03.767Z,3.95
2019-04-01T06:39:04.667Z,4.04
2019-04-01T06:40:03.743Z,4.00
2019-04-01T06:41:03.731Z,4.12
2019-04-01T06:42:07.058Z,4.20
2019-04-01T06:43:03.713Z,4.20
2019-04-01T06:44:03.701Z,4.27
2019-04-01T06:45:03.706Z,4.42
2019-04-01T06:46:03.715Z,4.48
2019-04-01T06:47:03.661Z,4.57
2019-04-01T06:48:03.653Z,4.58
2019-04-01T06:49:03.660Z,4.68
2019-04-01T06:50:03.648Z,4.78
2019-04-01T06:51:03.623Z,4.83
2019-04-01T06:52:03.676Z,4.95
2019-04-01T06:53:03.621Z,5.10
2019-04-01T06:54:03.600Z,5.18
2019-04-01T06:55:03.619Z,5.20
2019-04-01T06:56:03.607Z,5.34
2019-04-01T06:57:03.603Z,5.34
2019-04-01T06:58:03.548Z,5.37
2019-04-01T06:59:03.560Z,5.40
2019-04-01T07:00:03.532Z,5.41
2019-04-01T07:01:03.538Z,5.54
2019-04-01T07:02:03.567Z,5.70
2019-04-01T07:03:03.499Z,5.65
2019-04-01T07:04:03.493Z,5.72
2019-04-01T07:05:03.498Z,5.74
2019-04-01T07:06:03.498Z,5.80
2019-04-01T07:07:17.793Z,5.84
2019-04-01T07:08:04.444Z,5.91
2019-04-01T07:09:03.449Z,5.94
2019-04-01T07:10:03.432Z,6.02
2019-04-01T07:11:03.411Z,6.06
2019-04-01T07:12:03.406Z,6.02
2019-04-01T07:13:03.405Z,6.15
2019-04-01T07:14:03.406Z,6.15
2019-04-01T07:15:03.405Z,6.17
2019-04-01T07:16:14.628Z,6.31
2019-04-01T07:17:04.350Z,6.39
2019-04-01T07:18:03.361Z,6.39
2019-04-01T07:19:03.339Z,6.53
2019-04-01T07:20:03.336Z,6.68
2019-04-01T07:21:03.334Z,6.64
2019-04-01T07:22:03.319Z,6.60
2019-04-01T07:23:03.294Z,6.65
2019-04-01T07:24:03.290Z,6.77
2019-04-01T07:25:03.272Z,6.87
2019-04-01T07:26:03.267Z,6.92
2019-04-01T07:27:03.319Z,6.95
2019-04-01T07:28:03.255Z,7.01
2019-04-01T07:29:03.231Z,7.01
2019-04-01T07:30:03.223Z,7.21
2019-04-01T07:31:03.224Z,7.19
2019-04-01T07:32:03.207Z,7.33
2019-04-01T07:33:03.221Z,7.33
2019-04-01T07:34:03.178Z,7.32
2019-04-01T07:35:03.172Z,7.32
2019-04-01T07:36:03.164Z,7.36
2019-04-01T07:37:03.160Z,7.43
2019-04-01T07:38:03.249Z,7.55
2019-04-01T07:39:03.150Z,7.56
2019-04-01T07:40:03.121Z,7.59
2019-04-01T07:41:03.111Z,7.75
2019-04-01T07:42:03.102Z,7.72
2019-04-01T07:43:03.094Z,7.83
2019-04-01T07:44:03.113Z,7.90
2019-04-01T07:45:03.054Z,7.88
2019-04-01T07:46:03.057Z,7.91
2019-04-01T07:47:03.036Z,7.91
2019-04-01T07:48:03.030Z,7.90
2019-04-01T07:49:03.117Z,7.77
2019-04-01T07:50:03.041Z,7.80
2019-04-01T07:51:03.000Z,7.88
2019-04-01T07:52:02.973Z,7.88
2019-04-01T07:53:02.971Z,7.95
2019-04-01T07:54:03.070Z,8.06
2019-04-01T07:55:02.999Z,8.18
2019-04-01T07:56:02.948Z,8.24
2019-04-01T07:57:02.938Z,8.13
2019-04-01T07:58:02.917Z,8.31
2019-04-01T07:59:02.954Z,8.13
2019-04-01T08:00:02.912Z,8.11
2019-04-01T08:01:02.885Z,8.09
2019-04-01T08:02:02.885Z,8.01
2019-04-01T08:03:02.872Z,8.03
2019-04-01T08:04:02.859Z,8.03
2019-04-01T08:05:02.865Z,8.01
2019-04-01T08:06:02.840Z,7.99
2019-04-01T08:07:02.836Z,7.98
2019-04-01T08:08:02.813Z,7.96
2019-04-01T08:09:02.843Z,8.05
2019-04-01T08:10:02.825Z,8.17
2019-04-01T08:11:02.784Z,8.23
2019-04-01T08:12:02.771Z,8.31
2019-04-01T08:13:02.753Z,8.39
2019-04-01T08:14:02.774Z,8.35
2019-04-01T08:15:02.795Z,8.39
2019-04-01T08:16:02.747Z,8.53
2019-04-01T08:17:02.762Z,8.63
2019-04-01T08:18:02.711Z,8.75
2019-04-01T08:19:02.704Z,8.84
2019-04-01T08:20:02.731Z,8.84
2019-04-01T08:21:02.692Z,8.97
2019-04-01T08:22:02.670Z,8.89
2019-04-01T08:23:02.679Z,8.95
2019-04-01T08:24:02.647Z,9.05
2019-04-01T08:25:02.643Z,9.02
2019-04-01T08:26:03.715Z,9.09
2019-04-01T08:27:02.634Z,9.18
2019-04-01T08:28:02.617Z,9.12
2019-04-01T08:29:02.603Z,9.12
2019-04-01T08:30:02.592Z,9.05
2019-04-01T08:31:02.660Z,9.11
2019-04-01T08:32:02.596Z,9.05
2019-04-01T08:33:02.635Z,9.05
2019-04-01T08:34:02.619Z,9.02
2019-04-01T08:35:02.614Z,9.09
2019-04-01T08:36:02.549Z,9.15
2019-04-01T08:37:02.745Z,9.29
2019-04-01T08:38:02.686Z,9.36
2019-04-01T08:39:02.584Z,9.40
2019-04-01T08:40:02.513Z,9.59
2019-04-01T08:41:02.486Z,9.56
2019-04-01T08:42:02.650Z,9.80
2019-04-01T08:43:02.518Z,9.94
2019-04-01T08:44:03.360Z,9.88
2019-04-01T08:45:02.447Z,10.02
2019-04-01T08:46:02.438Z,10.03
2019-04-01T08:47:02.559Z,10.09
2019-04-01T08:48:02.437Z,10.12
2019-04-01T08:49:02.395Z,10.24
2019-04-01T08:50:02.446Z,10.30
2019-04-01T08:51:02.357Z,10.27
2019-04-01T08:52:02.366Z,10.24
2019-04-01T08:53:02.345Z,10.27
2019-04-01T08:54:02.324Z,10.25
2019-04-01T08:55:02.332Z,10.27
2019-04-01T08:56:02.313Z,10.17
2019-04-01T08:57:02.291Z,10.21
2019-04-01T08:58:02.283Z,10.21
2019-04-01T08:59:02.292Z,10.15
2019-04-01T09:00:02.313Z,10.18
2019-04-01T09:01:02.267Z,10.18
2019-04-01T09:02:16.708Z,10.28
2019-04-01T09:03:03.232Z,10.28
2019-04-01T09:04:02.285Z,10.27
2019-04-01T09:05:02.219Z,10.36
2019-04-01T09:06:02.329Z,10.39
2019-04-01T09:07:02.213Z,10.39
2019-04-01T09:08:02.204Z,10.48
2019-04-01T09:09:02.206Z,10.43
2019-04-01T09:10:02.184Z,10.43
2019-04-01T09:11:02.171Z,10.53
2019-04-01T09:12:02.214Z,10.58
2019-04-01T09:13:02.127Z,10.58
2019-04-01T09:14:02.138Z,10.67
2019-04-01T09:15:02.152Z,10.82
2019-04-01T09:16:02.111Z,10.94
2019-04-01T09:17:02.095Z,11.18
2019-04-01T09:18:02.087Z,11.40
2019-04-01T09:19:02.064Z,11.51
2019-04-01T09:20:02.069Z,11.56
2019-04-01T09:21:02.056Z,11.33
2019-04-01T09:22:02.058Z,11.13
2019-04-01T09:23:02.045Z,11.08
2019-04-01T09:24:02.098Z,11.08
2019-04-01T09:25:02.017Z,11.12
2019-04-01T09:26:02.007Z,10.97
2019-04-01T09:27:01.997Z,10.98
2019-04-01T09:28:02.030Z,10.95
2019-04-01T09:29:01.966Z,10.94
2019-04-01T09:30:01.966Z,10.92
2019-04-01T09:31:01.950Z,10.89
2019-04-01T09:32:01.963Z,10.86
2019-04-01T09:33:01.942Z,10.95
2019-04-01T09:34:01.946Z,10.95
2019-04-01T09:35:01.929Z,10.92
2019-04-01T09:36:01.894Z,10.98
2019-04-01T09:37:01.890Z,10.95
2019-04-01T09:38:01.865Z,10.86
2019-04-01T09:39:01.903Z,10.94
2019-04-01T09:40:01.861Z,10.98
2019-04-01T09:41:01.860Z,10.98
2019-04-01T09:42:02.722Z,10.97
2019-04-01T09:43:01.841Z,10.80
2019-04-01T09:44:01.807Z,10.82
2019-04-01T09:45:01.875Z,10.89
2019-04-01T09:46:01.782Z,10.86
2019-04-01T09:47:01.909Z,10.75
2019-04-01T09:48:01.776Z,10.67
2019-04-01T09:49:01.789Z,10.62
2019-04-01T09:50:01.790Z,10.55
2019-04-01T09:51:01.765Z,10.67
2019-04-01T09:52:03.869Z,10.61
2019-04-01T09:53:01.713Z,10.69
2019-04-01T09:54:01.729Z,10.79
2019-04-01T09:55:01.726Z,10.86
2019-04-01T09:56:01.691Z,10.90
2019-04-01T09:57:16.101Z,10.90
2019-04-01T09:58:02.674Z,10.77
2019-04-01T09:59:01.654Z,10.67
2019-04-01T10:00:01.684Z,10.65
2019-04-01T10:01:01.680Z,10.67
2019-04-01T10:02:01.639Z,10.62
2019-04-01T10:03:01.627Z,10.62
2019-04-01T10:04:01.627Z,10.76
2019-04-01T10:05:01.592Z,10.75
2019-04-01T10:06:01.587Z,10.68
2019-04-01T10:07:01.625Z,10.80
2019-04-01T10:08:01.575Z,10.72
2019-04-01T10:09:01.576Z,10.79
2019-04-01T10:10:01.551Z,10.86
2019-04-01T10:11:01.532Z,10.84
2019-04-01T10:12:01.524Z,10.87
2019-04-01T10:13:01.527Z,10.87
2019-04-01T10:14:01.536Z,10.83
2019-04-01T10:15:01.483Z,10.77
2019-04-01T10:16:01.484Z,10.84
2019-04-01T10:17:01.466Z,10.94
2019-04-01T10:18:01.444Z,10.95
2019-04-01T10:19:01.462Z,10.97
2019-04-01T10:20:01.667Z,10.86
2019-04-01T10:21:01.424Z,10.86
2019-04-01T10:22:01.409Z,10.75
2019-04-01T10:23:01.399Z,10.76
2019-04-01T10:24:01.405Z,10.67
2019-04-01T10:25:01.402Z,10.62
2019-04-01T10:26:01.349Z,10.69
2019-04-01T10:27:01.348Z,10.68
2019-04-01T10:28:01.411Z,10.51
2019-04-01T10:29:01.333Z,10.65
2019-04-01T10:30:01.325Z,10.62
2019-04-01T10:31:01.316Z,10.72
2019-04-01T10:32:01.314Z,10.61
2019-04-01T10:33:02.382Z,10.71
2019-04-01T10:34:01.289Z,10.83
2019-04-01T10:35:01.272Z,10.84
2019-04-01T10:36:01.264Z,10.98
2019-04-01T10:37:01.286Z,11.10
2019-04-01T10:38:01.226Z,11.08
2019-04-01T10:39:01.304Z,11.08
2019-04-01T10:40:01.218Z,10.89
2019-04-01T10:41:01.224Z,10.98
2019-04-01T10:42:01.218Z,10.84
2019-04-01T10:43:01.198Z,10.90
2019-04-01T10:44:04.586Z,10.86
2019-04-01T10:45:01.173Z,10.75
2019-04-01T10:46:01.166Z,10.72
2019-04-01T10:47:01.242Z,10.75
2019-04-01T10:48:01.229Z,10.82
2019-04-01T10:49:01.149Z,10.82
2019-04-01T10:50:01.168Z,10.83
2019-04-01T10:51:01.178Z,10.94
2019-04-01T10:52:01.099Z,10.87
2019-04-01T10:53:01.104Z,10.90
2019-04-01T10:54:01.152Z,10.97
2019-04-01T10:55:01.103Z,10.87
2019-04-01T10:56:01.100Z,11.05
2019-04-01T10:57:01.064Z,11.05
2019-04-01T10:58:01.081Z,11.10
2019-04-01T10:59:01.061Z,11.05
2019-04-01T11:00:01.119Z,10.95
2019-04-01T11:01:01.064Z,10.79
2019-04-01T11:02:01.045Z,10.87
2019-04-01T11:03:01.071Z,10.75
2019-04-01T11:04:01.019Z,10.75
2019-04-01T11:05:01.034Z,10.62
2019-04-01T11:06:01.039Z,10.64
2019-04-01T11:07:00.941Z,10.68
2019-04-01T11:08:01.003Z,10.62
2019-04-01T11:09:00.983Z,10.67
2019-04-01T11:10:00.914Z,10.61
2019-04-01T11:11:00.924Z,10.61
2019-04-01T11:12:00.891Z,10.61
2019-04-01T11:13:00.892Z,10.62
2019-04-01T11:14:00.870Z,10.59
2019-04-01T11:15:00.854Z,10.62
2019-04-01T11:16:00.841Z,10.61
2019-04-01T11:17:04.039Z,10.65
2019-04-01T11:18:00.847Z,10.61
2019-04-01T11:19:00.866Z,10.79
2019-04-01T11:20:00.799Z,10.86
2019-04-01T11:21:00.794Z,10.87
2019-04-01T11:22:00.784Z,10.87
2019-04-01T11:23:02.545Z,10.71
2019-04-01T11:24:02.015Z,10.76
2019-04-01T11:25:00.777Z,10.75
2019-04-01T11:26:00.814Z,10.71
2019-04-01T11:27:00.776Z,10.76
2019-04-01T11:28:00.725Z,10.62
2019-04-01T11:29:00.711Z,10.65
2019-04-01T11:30:00.700Z,10.58
2019-04-01T11:31:00.783Z,10.64
2019-04-01T11:32:00.699Z,10.62
2019-04-01T11:33:00.695Z,10.59
2019-04-01T11:34:00.668Z,10.49
2019-04-01T11:35:00.659Z,10.46
2019-04-01T11:36:00.641Z,10.41
2019-04-01T11:37:00.623Z,10.36
2019-04-01T11:38:00.707Z,10.36
2019-04-01T11:39:00.648Z,10.39
2019-04-01T11:40:00.625Z,10.30
2019-04-01T11:41:00.639Z,10.30
2019-04-01T11:42:01.565Z,10.25
2019-04-01T11:43:00.956Z,10.31
2019-04-01T11:44:00.590Z,10.28
2019-04-01T11:45:00.584Z,10.43
2019-04-01T11:46:00.554Z,10.43
2019-04-01T11:47:00.610Z,10.51
2019-04-01T11:48:00.557Z,10.51
2019-04-01T11:49:00.511Z,10.49
2019-04-01T11:50:00.564Z,10.58
2019-04-01T11:51:00.480Z,10.53
2019-04-01T11:52:00.503Z,10.58
2019-04-01T11:53:00.479Z,10.62
2019-04-01T11:54:00.442Z,10.59
2019-04-01T11:55:00.504Z,10.57
2019-04-01T11:56:00.415Z,10.57
2019-04-01T11:57:00.407Z,10.57
2019-04-01T11:58:00.563Z,10.57
2019-04-01T11:59:00.405Z,10.49
2019-04-01T12:00:00.508Z,10.58
2019-04-01T12:01:00.421Z,10.61
2019-04-01T12:02:00.380Z,10.61
2019-04-01T12:03:00.420Z,10.75
2019-04-01T12:04:00.329Z,10.77
2019-04-01T12:05:00.547Z,10.80
2019-04-01T12:06:00.312Z,10.95
2019-04-01T12:07:02.022Z,10.94
2019-04-01T12:08:00.294Z,10.94
2019-04-01T12:09:00.297Z,11.12
2019-04-01T12:10:00.294Z,11.22
2019-04-01T12:11:00.270Z,11.19
2019-04-01T12:12:00.366Z,11.07
2019-04-01T12:13:00.438Z,11.13
2019-04-01T12:14:00.233Z,10.97
2019-04-01T12:15:00.391Z,10.97
2019-04-01T12:16:00.219Z,11.12
2019-04-01T12:17:00.189Z,11.12
2019-04-01T12:18:00.196Z,11.02
2019-04-01T12:19:00.163Z,11.15
2019-04-01T12:20:00.397Z,11.10
2019-04-01T12:21:00.171Z,11.19
2019-04-01T12:22:00.165Z,11.33
2019-04-01T12:23:00.159Z,11.26
2019-04-01T12:24:00.120Z,11.27
2019-04-01T12:25:00.256Z,11.44
2019-04-01T12:26:13.908Z,11.67
2019-04-01T12:27:01.111Z,12.26
2019-04-01T12:28:00.097Z,13.08
2019-04-01T12:29:00.084Z,13.93
2019-04-01T12:30:00.093Z,14.52
2019-04-01T12:31:00.084Z,15.04
2019-04-01T12:32:00.033Z,15.26
2019-04-01T12:33:00.066Z,15.76
2019-04-01T12:34:00.044Z,16.25
2019-04-01T12:35:00.000Z,16.72
2019-04-01T12:35:59.993Z,17.13
2019-04-01T12:36:59.986Z,17.44
2019-04-01T12:37:59.984Z,17.34
2019-04-01T12:38:59.976Z,17.41
2019-04-01T12:39:59.946Z,17.68
2019-04-01T12:40:59.942Z,17.75
2019-04-01T12:41:59.955Z,18.16
2019-04-01T12:42:59.919Z,18.33
2019-04-01T12:43:59.924Z,18.51
2019-04-01T12:44:59.901Z,18.67
2019-04-01T12:45:59.888Z,19.00
2019-04-01T12:46:59.880Z,19.30
2019-04-01T12:47:59.878Z,19.37
2019-04-01T12:48:59.890Z,19.62
2019-04-01T12:49:59.837Z,19.84
2019-04-01T12:50:59.840Z,20.12
2019-04-01T12:51:59.814Z,20.40
2019-04-01T12:52:59.810Z,20.52
2019-04-01T12:53:59.877Z,20.75
2019-04-01T12:55:01.073Z,21.05
2019-04-01T12:55:59.815Z,21.29
2019-04-01T12:56:59.766Z,21.53
2019-04-01T12:57:59.763Z,21.72
2019-04-01T12:58:59.774Z,21.85
2019-04-01T12:59:59.777Z,22.14
2019-04-01T13:01:01.144Z,22.40
2019-04-01T13:01:59.751Z,22.41
2019-04-01T13:02:59.723Z,22.28
2019-04-01T13:03:59.795Z,22.44
2019-04-01T13:04:59.707Z,22.52
2019-04-01T13:05:59.694Z,22.40